<?xml version="1.0" encoding="UTF-8" standalone="no" ?>
<gpx xmlns="http://www.topografix.com/GPX/1/1" xmlns:xsi="http://www.w3.org/2001/XMLSchema-instance" xsi:schemaLocation="http://www.topografix.com/GPX/1/1 http://www.topografix.com/GPX/1/1/gpx.xsd" version="1.1" creator="VisuGPX - https://www.visugpx.com">
  <metadata>
    <name>Mont Bart du soir</name>
  </metadata>
  <trk>
    <name><![CDATA[Mont Bart du soir]]></name>
    <extensions>
      <line xmlns="http://www.topografix.com/GPX/gpx_style/0/2">
        <color>0000FF</color>
        <width>4</width>
      </line>
    </extensions>
    <trkseg>
      <trkpt lat="47.51847" lon="6.77505">
        <ele>388.6</ele>
        <time>2022-03-03T16:50:58.000Z</time>
      </trkpt>
      <trkpt lat="47.51832" lon="6.77509">
        <ele>388.4</ele>
        <time>2022-03-03T16:51:00.018Z</time>
      </trkpt>
      <trkpt lat="47.51735" lon="6.77475">
        <ele>391.5</ele>
        <time>2022-03-03T16:51:23.500Z</time>
      </trkpt>
      <trkpt lat="47.51712" lon="6.77576">
        <ele>391.8</ele>
        <time>2022-03-03T16:51:36.108Z</time>
      </trkpt>
      <trkpt lat="47.51489" lon="6.77306">
        <ele>376.2</ele>
        <time>2022-03-03T16:52:01.145Z</time>
      </trkpt>
      <trkpt lat="47.51476" lon="6.77191">
        <ele>375.1</ele>
        <time>2022-03-03T16:52:11.461Z</time>
      </trkpt>
      <trkpt lat="47.51331" lon="6.77275">
        <ele>381.1</ele>
        <time>2022-03-03T16:52:52.001Z</time>
      </trkpt>
      <trkpt lat="47.51263" lon="6.7726">
        <ele>384.5</ele>
        <time>2022-03-03T16:53:12.181Z</time>
      </trkpt>
      <trkpt lat="47.51206" lon="6.7715">
        <ele>382.4</ele>
        <time>2022-03-03T16:53:23.265Z</time>
      </trkpt>
      <trkpt lat="47.51168" lon="6.77075">
        <ele>379.7</ele>
        <time>2022-03-03T16:53:29.356Z</time>
      </trkpt>
      <trkpt lat="47.51079" lon="6.77">
        <ele>378</ele>
        <time>2022-03-03T16:53:42.340Z</time>
      </trkpt>
      <trkpt lat="47.51011" lon="6.7694">
        <ele>378.4</ele>
        <time>2022-03-03T16:53:56.323Z</time>
      </trkpt>
      <trkpt lat="47.50985" lon="6.76906">
        <ele>378.5</ele>
        <time>2022-03-03T16:54:02.325Z</time>
      </trkpt>
      <trkpt lat="47.50923" lon="6.76876">
        <ele>381.1</ele>
        <time>2022-03-03T16:54:19.633Z</time>
      </trkpt>
      <trkpt lat="47.50857" lon="6.76701">
        <ele>386.3</ele>
        <time>2022-03-03T16:54:54.820Z</time>
      </trkpt>
      <trkpt lat="47.5081" lon="6.76579">
        <ele>391.8</ele>
        <time>2022-03-03T16:55:24.307Z</time>
      </trkpt>
      <trkpt lat="47.50809" lon="6.76508">
        <ele>391.8</ele>
        <time>2022-03-03T16:55:32.388Z</time>
      </trkpt>
      <trkpt lat="47.50795" lon="6.76453">
        <ele>390</ele>
        <time>2022-03-03T16:55:36.114Z</time>
      </trkpt>
      <trkpt lat="47.50767" lon="6.76345">
        <ele>381.1</ele>
        <time>2022-03-03T16:55:42.824Z</time>
      </trkpt>
      <trkpt lat="47.50719" lon="6.76222">
        <ele>374.4</ele>
        <time>2022-03-03T16:55:51.064Z</time>
      </trkpt>
      <trkpt lat="47.50721" lon="6.76115">
        <ele>372.3</ele>
        <time>2022-03-03T16:55:59.022Z</time>
      </trkpt>
      <trkpt lat="47.50733" lon="6.75925">
        <ele>363.8</ele>
        <time>2022-03-03T16:56:09.219Z</time>
      </trkpt>
      <trkpt lat="47.50728" lon="6.75723">
        <ele>350.7</ele>
        <time>2022-03-03T16:56:20.945Z</time>
      </trkpt>
      <trkpt lat="47.50719" lon="6.75558">
        <ele>341.6</ele>
        <time>2022-03-03T16:56:30.548Z</time>
      </trkpt>
      <trkpt lat="47.50692" lon="6.75469">
        <ele>336.1</ele>
        <time>2022-03-03T16:56:36.207Z</time>
      </trkpt>
      <trkpt lat="47.50667" lon="6.75411">
        <ele>331.6</ele>
        <time>2022-03-03T16:56:40.198Z</time>
      </trkpt>
      <trkpt lat="47.50587" lon="6.75394">
        <ele>328.2</ele>
        <time>2022-03-03T16:56:48.014Z</time>
      </trkpt>
      <trkpt lat="47.50516" lon="6.75364">
        <ele>325.6</ele>
        <time>2022-03-03T16:56:55.641Z</time>
      </trkpt>
      <trkpt lat="47.5049" lon="6.75259">
        <ele>322.9</ele>
        <time>2022-03-03T16:57:03.404Z</time>
      </trkpt>
      <trkpt lat="47.50479" lon="6.75176">
        <ele>323.9</ele>
        <time>2022-03-03T16:57:14.867Z</time>
      </trkpt>
      <trkpt lat="47.50507" lon="6.75154">
        <ele>326.3</ele>
        <time>2022-03-03T16:57:26.096Z</time>
      </trkpt>
      <trkpt lat="47.50508" lon="6.7505">
        <ele>333.9</ele>
        <time>2022-03-03T16:57:59.539Z</time>
      </trkpt>
      <trkpt lat="47.50526" lon="6.74934">
        <ele>343.2</ele>
        <time>2022-03-03T16:58:41.110Z</time>
      </trkpt>
      <trkpt lat="47.50487" lon="6.74855">
        <ele>350</ele>
        <time>2022-03-03T16:59:10.902Z</time>
      </trkpt>
      <trkpt lat="47.50473" lon="6.74836">
        <ele>351.8</ele>
        <time>2022-03-03T16:59:18.820Z</time>
      </trkpt>
      <trkpt lat="47.50429" lon="6.74801">
        <ele>354.1</ele>
        <time>2022-03-03T16:59:33.162Z</time>
      </trkpt>
      <trkpt lat="47.50398" lon="6.74699">
        <ele>354.5</ele>
        <time>2022-03-03T16:59:46.539Z</time>
      </trkpt>
      <trkpt lat="47.50401" lon="6.74673">
        <ele>354.9</ele>
        <time>2022-03-03T16:59:50.318Z</time>
      </trkpt>
      <trkpt lat="47.50385" lon="6.74538">
        <ele>355.9</ele>
        <time>2022-03-03T17:00:07.629Z</time>
      </trkpt>
      <trkpt lat="47.50369" lon="6.74492">
        <ele>355.6</ele>
        <time>2022-03-03T17:00:12.541Z</time>
      </trkpt>
      <trkpt lat="47.50266" lon="6.74372">
        <ele>354.2</ele>
        <time>2022-03-03T17:00:30.455Z</time>
      </trkpt>
      <trkpt lat="47.50179" lon="6.74232">
        <ele>360.5</ele>
        <time>2022-03-03T17:01:08.069Z</time>
      </trkpt>
      <trkpt lat="47.50126" lon="6.74081">
        <ele>358.6</ele>
        <time>2022-03-03T17:01:22.656Z</time>
      </trkpt>
      <trkpt lat="47.50083" lon="6.73925">
        <ele>352.3</ele>
        <time>2022-03-03T17:01:32.451Z</time>
      </trkpt>
      <trkpt lat="47.50056" lon="6.73701">
        <ele>347.3</ele>
        <time>2022-03-03T17:01:48.767Z</time>
      </trkpt>
      <trkpt lat="47.50054" lon="6.73523">
        <ele>343.7</ele>
        <time>2022-03-03T17:02:01.879Z</time>
      </trkpt>
      <trkpt lat="47.50092" lon="6.734">
        <ele>345</ele>
        <time>2022-03-03T17:02:19.579Z</time>
      </trkpt>
      <trkpt lat="47.50137" lon="6.73275">
        <ele>344.7</ele>
        <time>2022-03-03T17:02:34.960Z</time>
      </trkpt>
      <trkpt lat="47.50171" lon="6.73215">
        <ele>345</ele>
        <time>2022-03-03T17:02:44.361Z</time>
      </trkpt>
      <trkpt lat="47.50176" lon="6.73172">
        <ele>343.5</ele>
        <time>2022-03-03T17:02:46.995Z</time>
      </trkpt>
      <trkpt lat="47.50189" lon="6.73142">
        <ele>342.2</ele>
        <time>2022-03-03T17:02:49.091Z</time>
      </trkpt>
      <trkpt lat="47.50166" lon="6.73124">
        <ele>341.4</ele>
        <time>2022-03-03T17:02:51.903Z</time>
      </trkpt>
      <trkpt lat="47.50108" lon="6.73122">
        <ele>338.2</ele>
        <time>2022-03-03T17:02:56.904Z</time>
      </trkpt>
      <trkpt lat="47.50036" lon="6.7306">
        <ele>337</ele>
        <time>2022-03-03T17:03:07.755Z</time>
      </trkpt>
      <trkpt lat="47.49976" lon="6.72974">
        <ele>337</ele>
        <time>2022-03-03T17:03:21.826Z</time>
      </trkpt>
      <trkpt lat="47.49893" lon="6.72933">
        <ele>340.8</ele>
        <time>2022-03-03T17:03:46.303Z</time>
      </trkpt>
      <trkpt lat="47.49794" lon="6.7288">
        <ele>347</ele>
        <time>2022-03-03T17:04:19.234Z</time>
      </trkpt>
      <trkpt lat="47.49728" lon="6.72851">
        <ele>350</ele>
        <time>2022-03-03T17:04:38.536Z</time>
      </trkpt>
      <trkpt lat="47.49692" lon="6.72874">
        <ele>350.8</ele>
        <time>2022-03-03T17:04:46.660Z</time>
      </trkpt>
      <trkpt lat="47.49646" lon="6.72984">
        <ele>347.9</ele>
        <time>2022-03-03T17:04:55.875Z</time>
      </trkpt>
      <trkpt lat="47.49606" lon="6.72996">
        <ele>346</ele>
        <time>2022-03-03T17:04:59.664Z</time>
      </trkpt>
      <trkpt lat="47.49536" lon="6.73023">
        <ele>351.3</ele>
        <time>2022-03-03T17:05:24.805Z</time>
      </trkpt>
      <trkpt lat="47.49465" lon="6.73147">
        <ele>359.2</ele>
        <time>2022-03-03T17:06:02.585Z</time>
      </trkpt>
      <trkpt lat="47.494" lon="6.73268">
        <ele>364.6</ele>
        <time>2022-03-03T17:06:33.698Z</time>
      </trkpt>
      <trkpt lat="47.49379" lon="6.73254">
        <ele>370.7</ele>
        <time>2022-03-03T17:06:48.664Z</time>
      </trkpt>
      <trkpt lat="47.49383" lon="6.73206">
        <ele>371.6</ele>
        <time>2022-03-03T17:06:56.027Z</time>
      </trkpt>
      <trkpt lat="47.49388" lon="6.73123">
        <ele>373.6</ele>
        <time>2022-03-03T17:07:10.086Z</time>
      </trkpt>
      <trkpt lat="47.49295" lon="6.72968">
        <ele>385.9</ele>
        <time>2022-03-03T17:08:04.936Z</time>
      </trkpt>
      <trkpt lat="47.49268" lon="6.72949">
        <ele>387.7</ele>
        <time>2022-03-03T17:08:14.374Z</time>
      </trkpt>
      <trkpt lat="47.49171" lon="6.72979">
        <ele>385.7</ele>
        <time>2022-03-03T17:08:26.410Z</time>
      </trkpt>
      <trkpt lat="47.49171" lon="6.72964">
        <ele>385.7</ele>
        <time>2022-03-03T17:08:28.118Z</time>
      </trkpt>
      <trkpt lat="47.4916" lon="6.73061">
        <ele>385.2</ele>
        <time>2022-03-03T17:08:37.595Z</time>
      </trkpt>
      <trkpt lat="47.49138" lon="6.73217">
        <ele>382</ele>
        <time>2022-03-03T17:08:49.361Z</time>
      </trkpt>
      <trkpt lat="47.49107" lon="6.73327">
        <ele>379.2</ele>
        <time>2022-03-03T17:08:57.717Z</time>
      </trkpt>
      <trkpt lat="47.49107" lon="6.73374">
        <ele>375.8</ele>
        <time>2022-03-03T17:09:00.444Z</time>
      </trkpt>
      <trkpt lat="47.49065" lon="6.73419">
        <ele>377.3</ele>
        <time>2022-03-03T17:09:12.329Z</time>
      </trkpt>
      <trkpt lat="47.49025" lon="6.73496">
        <ele>378.9</ele>
        <time>2022-03-03T17:09:26.564Z</time>
      </trkpt>
      <trkpt lat="47.48941" lon="6.73551">
        <ele>379.1</ele>
        <time>2022-03-03T17:09:42.353Z</time>
      </trkpt>
      <trkpt lat="47.48881" lon="6.73622">
        <ele>379.3</ele>
        <time>2022-03-03T17:09:55.611Z</time>
      </trkpt>
      <trkpt lat="47.48933" lon="6.73648">
        <ele>377.6</ele>
        <time>2022-03-03T17:10:01.531Z</time>
      </trkpt>
      <trkpt lat="47.48957" lon="6.73723">
        <ele>372.7</ele>
        <time>2022-03-03T17:10:06.346Z</time>
      </trkpt>
      <trkpt lat="47.4898" lon="6.73915">
        <ele>377.9</ele>
        <time>2022-03-03T17:10:41.110Z</time>
      </trkpt>
      <trkpt lat="47.49001" lon="6.74041">
        <ele>378.9</ele>
        <time>2022-03-03T17:10:57.606Z</time>
      </trkpt>
      <trkpt lat="47.48983" lon="6.74174">
        <ele>390</ele>
        <time>2022-03-03T17:11:48.156Z</time>
      </trkpt>
      <trkpt lat="47.48954" lon="6.74341">
        <ele>402</ele>
        <time>2022-03-03T17:12:40.733Z</time>
      </trkpt>
      <trkpt lat="47.48943" lon="6.7451">
        <ele>413.8</ele>
        <time>2022-03-03T17:13:32.431Z</time>
      </trkpt>
      <trkpt lat="47.48925" lon="6.74656">
        <ele>422.8</ele>
        <time>2022-03-03T17:14:12.374Z</time>
      </trkpt>
      <trkpt lat="47.4888" lon="6.74861">
        <ele>436.9</ele>
        <time>2022-03-03T17:15:14.257Z</time>
      </trkpt>
      <trkpt lat="47.4888" lon="6.75022">
        <ele>443.3</ele>
        <time>2022-03-03T17:15:48.271Z</time>
      </trkpt>
      <trkpt lat="47.48891" lon="6.75109">
        <ele>434.1</ele>
        <time>2022-03-03T17:15:53.408Z</time>
      </trkpt>
      <trkpt lat="47.48947" lon="6.75178">
        <ele>424.6</ele>
        <time>2022-03-03T17:15:59.665Z</time>
      </trkpt>
      <trkpt lat="47.48926" lon="6.75282">
        <ele>419.9</ele>
        <time>2022-03-03T17:16:05.551Z</time>
      </trkpt>
      <trkpt lat="47.48928" lon="6.75401">
        <ele>416</ele>
        <time>2022-03-03T17:16:12.890Z</time>
      </trkpt>
      <trkpt lat="47.48906" lon="6.75543">
        <ele>410.9</ele>
        <time>2022-03-03T17:16:21.618Z</time>
      </trkpt>
      <trkpt lat="47.48886" lon="6.75626">
        <ele>408.9</ele>
        <time>2022-03-03T17:16:27.870Z</time>
      </trkpt>
      <trkpt lat="47.48839" lon="6.75683">
        <ele>413</ele>
        <time>2022-03-03T17:16:48.084Z</time>
      </trkpt>
      <trkpt lat="47.48862" lon="6.75747">
        <ele>419.5</ele>
        <time>2022-03-03T17:17:19.578Z</time>
      </trkpt>
      <trkpt lat="47.48885" lon="6.75814">
        <ele>422.3</ele>
        <time>2022-03-03T17:17:35.058Z</time>
      </trkpt>
      <trkpt lat="47.48874" lon="6.75846">
        <ele>426.9</ele>
        <time>2022-03-03T17:17:50.823Z</time>
      </trkpt>
      <trkpt lat="47.4885" lon="6.75823">
        <ele>430.2</ele>
        <time>2022-03-03T17:18:05.563Z</time>
      </trkpt>
      <trkpt lat="47.48823" lon="6.75809">
        <ele>430.2</ele>
        <time>2022-03-03T17:18:10.383Z</time>
      </trkpt>
      <trkpt lat="47.48811" lon="6.75818">
        <ele>431.9</ele>
        <time>2022-03-03T17:18:18.314Z</time>
      </trkpt>
      <trkpt lat="47.48814" lon="6.75852">
        <ele>439.2</ele>
        <time>2022-03-03T17:18:33.370Z</time>
      </trkpt>
      <trkpt lat="47.48832" lon="6.75868">
        <ele>441.3</ele>
        <time>2022-03-03T17:18:42.570Z</time>
      </trkpt>
      <trkpt lat="47.48851" lon="6.75914">
        <ele>446.4</ele>
        <time>2022-03-03T17:19:06.242Z</time>
      </trkpt>
      <trkpt lat="47.48844" lon="6.75971">
        <ele>448.4</ele>
        <time>2022-03-03T17:19:17.857Z</time>
      </trkpt>
      <trkpt lat="47.48822" lon="6.76014">
        <ele>454.8</ele>
        <time>2022-03-03T17:19:41.539Z</time>
      </trkpt>
      <trkpt lat="47.48786" lon="6.76096">
        <ele>466.6</ele>
        <time>2022-03-03T17:20:24.477Z</time>
      </trkpt>
      <trkpt lat="47.48757" lon="6.76183">
        <ele>466.4</ele>
        <time>2022-03-03T17:20:35.027Z</time>
      </trkpt>
      <trkpt lat="47.48699" lon="6.7624">
        <ele>469.7</ele>
        <time>2022-03-03T17:20:55.193Z</time>
      </trkpt>
      <trkpt lat="47.48659" lon="6.76295">
        <ele>469.2</ele>
        <time>2022-03-03T17:21:02.808Z</time>
      </trkpt>
      <trkpt lat="47.48613" lon="6.76318">
        <ele>467.6</ele>
        <time>2022-03-03T17:21:07.939Z</time>
      </trkpt>
      <trkpt lat="47.48593" lon="6.76333">
        <ele>465.7</ele>
        <time>2022-03-03T17:21:09.864Z</time>
      </trkpt>
      <trkpt lat="47.48591" lon="6.76303">
        <ele>465.9</ele>
        <time>2022-03-03T17:21:13.635Z</time>
      </trkpt>
      <trkpt lat="47.48572" lon="6.76297">
        <ele>464.2</ele>
        <time>2022-03-03T17:21:15.304Z</time>
      </trkpt>
      <trkpt lat="47.48562" lon="6.76256">
        <ele>465.9</ele>
        <time>2022-03-03T17:21:24.442Z</time>
      </trkpt>
      <trkpt lat="47.48553" lon="6.76206">
        <ele>467.4</ele>
        <time>2022-03-03T17:21:34.146Z</time>
      </trkpt>
      <trkpt lat="47.4855" lon="6.76171">
        <ele>466.9</ele>
        <time>2022-03-03T17:21:37.015Z</time>
      </trkpt>
      <trkpt lat="47.48545" lon="6.76112">
        <ele>464.5</ele>
        <time>2022-03-03T17:21:40.352Z</time>
      </trkpt>
      <trkpt lat="47.48544" lon="6.76099">
        <ele>463.6</ele>
        <time>2022-03-03T17:21:41.111Z</time>
      </trkpt>
      <trkpt lat="47.48509" lon="6.76097">
        <ele>459</ele>
        <time>2022-03-03T17:21:44.119Z</time>
      </trkpt>
      <trkpt lat="47.48515" lon="6.76136">
        <ele>460.1</ele>
        <time>2022-03-03T17:21:51.379Z</time>
      </trkpt>
      <trkpt lat="47.48509" lon="6.76175">
        <ele>458.5</ele>
        <time>2022-03-03T17:21:53.633Z</time>
      </trkpt>
      <trkpt lat="47.48487" lon="6.7619">
        <ele>454.8</ele>
        <time>2022-03-03T17:21:55.713Z</time>
      </trkpt>
      <trkpt lat="47.48477" lon="6.76221">
        <ele>452.6</ele>
        <time>2022-03-03T17:21:57.707Z</time>
      </trkpt>
      <trkpt lat="47.48491" lon="6.76264">
        <ele>450.3</ele>
        <time>2022-03-03T17:22:00.477Z</time>
      </trkpt>
      <trkpt lat="47.48497" lon="6.76315">
        <ele>448.2</ele>
        <time>2022-03-03T17:22:03.375Z</time>
      </trkpt>
      <trkpt lat="47.48489" lon="6.76358">
        <ele>446.7</ele>
        <time>2022-03-03T17:22:06.094Z</time>
      </trkpt>
      <trkpt lat="47.4846" lon="6.76377">
        <ele>443.2</ele>
        <time>2022-03-03T17:22:08.818Z</time>
      </trkpt>
      <trkpt lat="47.48453" lon="6.76329">
        <ele>439.3</ele>
        <time>2022-03-03T17:22:11.668Z</time>
      </trkpt>
      <trkpt lat="47.48448" lon="6.7629">
        <ele>439.2</ele>
        <time>2022-03-03T17:22:15.943Z</time>
      </trkpt>
      <trkpt lat="47.48421" lon="6.76259">
        <ele>435</ele>
        <time>2022-03-03T17:22:18.878Z</time>
      </trkpt>
      <trkpt lat="47.48401" lon="6.76191">
        <ele>432.6</ele>
        <time>2022-03-03T17:22:23.475Z</time>
      </trkpt>
      <trkpt lat="47.48387" lon="6.76135">
        <ele>430.4</ele>
        <time>2022-03-03T17:22:26.971Z</time>
      </trkpt>
      <trkpt lat="47.48373" lon="6.76075">
        <ele>428.3</ele>
        <time>2022-03-03T17:22:30.869Z</time>
      </trkpt>
      <trkpt lat="47.48349" lon="6.76056">
        <ele>423.5</ele>
        <time>2022-03-03T17:22:33.207Z</time>
      </trkpt>
      <trkpt lat="47.48345" lon="6.76127">
        <ele>419.6</ele>
        <time>2022-03-03T17:22:37.341Z</time>
      </trkpt>
      <trkpt lat="47.48354" lon="6.7621">
        <ele>417.7</ele>
        <time>2022-03-03T17:22:43.315Z</time>
      </trkpt>
      <trkpt lat="47.48359" lon="6.76292">
        <ele>411.5</ele>
        <time>2022-03-03T17:22:48.093Z</time>
      </trkpt>
      <trkpt lat="47.48344" lon="6.7632">
        <ele>414</ele>
        <time>2022-03-03T17:22:59.049Z</time>
      </trkpt>
      <trkpt lat="47.48313" lon="6.76315">
        <ele>408.1</ele>
        <time>2022-03-03T17:23:01.727Z</time>
      </trkpt>
      <trkpt lat="47.4829" lon="6.7633">
        <ele>404.1</ele>
        <time>2022-03-03T17:23:03.885Z</time>
      </trkpt>
      <trkpt lat="47.48287" lon="6.76389">
        <ele>403.1</ele>
        <time>2022-03-03T17:23:08.482Z</time>
      </trkpt>
      <trkpt lat="47.48292" lon="6.76435">
        <ele>401.5</ele>
        <time>2022-03-03T17:23:11.298Z</time>
      </trkpt>
      <trkpt lat="47.48271" lon="6.76432">
        <ele>394.7</ele>
        <time>2022-03-03T17:23:13.109Z</time>
      </trkpt>
      <trkpt lat="47.48259" lon="6.76367">
        <ele>394.6</ele>
        <time>2022-03-03T17:23:20.531Z</time>
      </trkpt>
      <trkpt lat="47.48262" lon="6.76294">
        <ele>392.7</ele>
        <time>2022-03-03T17:23:25.478Z</time>
      </trkpt>
      <trkpt lat="47.48261" lon="6.76255">
        <ele>386.7</ele>
        <time>2022-03-03T17:23:27.743Z</time>
      </trkpt>
      <trkpt lat="47.48216" lon="6.76183">
        <ele>380.2</ele>
        <time>2022-03-03T17:23:33.435Z</time>
      </trkpt>
      <trkpt lat="47.48202" lon="6.76107">
        <ele>380.1</ele>
        <time>2022-03-03T17:23:42.152Z</time>
      </trkpt>
      <trkpt lat="47.48197" lon="6.76004">
        <ele>374.3</ele>
        <time>2022-03-03T17:23:48.145Z</time>
      </trkpt>
      <trkpt lat="47.48202" lon="6.75892">
        <ele>369.8</ele>
        <time>2022-03-03T17:23:54.465Z</time>
      </trkpt>
      <trkpt lat="47.48204" lon="6.75808">
        <ele>362.2</ele>
        <time>2022-03-03T17:23:59.343Z</time>
      </trkpt>
      <trkpt lat="47.48241" lon="6.75728">
        <ele>361.3</ele>
        <time>2022-03-03T17:24:07.950Z</time>
      </trkpt>
      <trkpt lat="47.48262" lon="6.75692">
        <ele>357.3</ele>
        <time>2022-03-03T17:24:10.710Z</time>
      </trkpt>
      <trkpt lat="47.4826" lon="6.75689">
        <ele>356.4</ele>
        <time>2022-03-03T17:24:10.955Z</time>
      </trkpt>
      <trkpt lat="47.48258" lon="6.75675">
        <ele>354</ele>
        <time>2022-03-03T17:24:11.785Z</time>
      </trkpt>
      <trkpt lat="47.4821" lon="6.75728">
        <ele>348.9</ele>
        <time>2022-03-03T17:24:16.928Z</time>
      </trkpt>
      <trkpt lat="47.48154" lon="6.75818">
        <ele>343.6</ele>
        <time>2022-03-03T17:24:23.561Z</time>
      </trkpt>
      <trkpt lat="47.48091" lon="6.75955">
        <ele>333.3</ele>
        <time>2022-03-03T17:24:33.179Z</time>
      </trkpt>
      <trkpt lat="47.48063" lon="6.76051">
        <ele>332.1</ele>
        <time>2022-03-03T17:24:42.096Z</time>
      </trkpt>
      <trkpt lat="47.48044" lon="6.76092">
        <ele>328.7</ele>
        <time>2022-03-03T17:24:44.981Z</time>
      </trkpt>
      <trkpt lat="47.4802" lon="6.76115">
        <ele>323.9</ele>
        <time>2022-03-03T17:24:47.437Z</time>
      </trkpt>
      <trkpt lat="47.48022" lon="6.76082">
        <ele>322.7</ele>
        <time>2022-03-03T17:24:49.392Z</time>
      </trkpt>
      <trkpt lat="47.48032" lon="6.76053">
        <ele>323.8</ele>
        <time>2022-03-03T17:24:55.874Z</time>
      </trkpt>
      <trkpt lat="47.48033" lon="6.76025">
        <ele>322</ele>
        <time>2022-03-03T17:24:57.501Z</time>
      </trkpt>
      <trkpt lat="47.48022" lon="6.76016">
        <ele>319.6</ele>
        <time>2022-03-03T17:24:58.580Z</time>
      </trkpt>
      <trkpt lat="47.48001" lon="6.76044">
        <ele>317.4</ele>
        <time>2022-03-03T17:25:01.008Z</time>
      </trkpt>
      <trkpt lat="47.47966" lon="6.76117">
        <ele>314.6</ele>
        <time>2022-03-03T17:25:06.636Z</time>
      </trkpt>
      <trkpt lat="47.4794" lon="6.7615">
        <ele>311.8</ele>
        <time>2022-03-03T17:25:09.578Z</time>
      </trkpt>
      <trkpt lat="47.47921" lon="6.76165">
        <ele>310.4</ele>
        <time>2022-03-03T17:25:11.294Z</time>
      </trkpt>
      <trkpt lat="47.47957" lon="6.76221">
        <ele>311.9</ele>
        <time>2022-03-03T17:25:23.234Z</time>
      </trkpt>
      <trkpt lat="47.47991" lon="6.76294">
        <ele>309.5</ele>
        <time>2022-03-03T17:25:29.139Z</time>
      </trkpt>
      <trkpt lat="47.48045" lon="6.76369">
        <ele>311.8</ele>
        <time>2022-03-03T17:25:46.576Z</time>
      </trkpt>
      <trkpt lat="47.48081" lon="6.76453">
        <ele>312</ele>
        <time>2022-03-03T17:25:58.218Z</time>
      </trkpt>
      <trkpt lat="47.48112" lon="6.76517">
        <ele>313.4</ele>
        <time>2022-03-03T17:26:10.029Z</time>
      </trkpt>
      <trkpt lat="47.48126" lon="6.76549">
        <ele>312.6</ele>
        <time>2022-03-03T17:26:12.805Z</time>
      </trkpt>
      <trkpt lat="47.48153" lon="6.76568">
        <ele>313.4</ele>
        <time>2022-03-03T17:26:19.477Z</time>
      </trkpt>
      <trkpt lat="47.48195" lon="6.76633">
        <ele>312.1</ele>
        <time>2022-03-03T17:26:26.757Z</time>
      </trkpt>
      <trkpt lat="47.48245" lon="6.76707">
        <ele>312.8</ele>
        <time>2022-03-03T17:26:39.858Z</time>
      </trkpt>
      <trkpt lat="47.48278" lon="6.76725">
        <ele>312.9</ele>
        <time>2022-03-03T17:26:45.942Z</time>
      </trkpt>
      <trkpt lat="47.4833" lon="6.76752">
        <ele>312.8</ele>
        <time>2022-03-03T17:26:54.974Z</time>
      </trkpt>
      <trkpt lat="47.48375" lon="6.76767">
        <ele>313.1</ele>
        <time>2022-03-03T17:27:03.238Z</time>
      </trkpt>
      <trkpt lat="47.48429" lon="6.76792">
        <ele>312.7</ele>
        <time>2022-03-03T17:27:11.838Z</time>
      </trkpt>
      <trkpt lat="47.48479" lon="6.76807">
        <ele>313.2</ele>
        <time>2022-03-03T17:27:21.280Z</time>
      </trkpt>
      <trkpt lat="47.48537" lon="6.76818">
        <ele>313.9</ele>
        <time>2022-03-03T17:27:32.344Z</time>
      </trkpt>
      <trkpt lat="47.48544" lon="6.76803">
        <ele>315.3</ele>
        <time>2022-03-03T17:27:38.569Z</time>
      </trkpt>
      <trkpt lat="47.48571" lon="6.76799">
        <ele>318.3</ele>
        <time>2022-03-03T17:27:51.820Z</time>
      </trkpt>
      <trkpt lat="47.48626" lon="6.76782">
        <ele>326.4</ele>
        <time>2022-03-03T17:28:28.330Z</time>
      </trkpt>
      <trkpt lat="47.487" lon="6.76778">
        <ele>329</ele>
        <time>2022-03-03T17:28:46.719Z</time>
      </trkpt>
      <trkpt lat="47.48756" lon="6.76775">
        <ele>328.8</ele>
        <time>2022-03-03T17:28:55.669Z</time>
      </trkpt>
      <trkpt lat="47.48866" lon="6.76743">
        <ele>325.4</ele>
        <time>2022-03-03T17:29:07.841Z</time>
      </trkpt>
      <trkpt lat="47.48925" lon="6.76661">
        <ele>328.6</ele>
        <time>2022-03-03T17:29:29.218Z</time>
      </trkpt>
      <trkpt lat="47.48978" lon="6.76586">
        <ele>326.3</ele>
        <time>2022-03-03T17:29:37.095Z</time>
      </trkpt>
      <trkpt lat="47.49021" lon="6.76504">
        <ele>325</ele>
        <time>2022-03-03T17:29:45.782Z</time>
      </trkpt>
      <trkpt lat="47.49033" lon="6.76446">
        <ele>326.3</ele>
        <time>2022-03-03T17:29:55.514Z</time>
      </trkpt>
      <trkpt lat="47.49044" lon="6.76324">
        <ele>326.9</ele>
        <time>2022-03-03T17:30:10.516Z</time>
      </trkpt>
      <trkpt lat="47.49024" lon="6.76219">
        <ele>332.5</ele>
        <time>2022-03-03T17:30:36.683Z</time>
      </trkpt>
      <trkpt lat="47.49018" lon="6.76108">
        <ele>342.9</ele>
        <time>2022-03-03T17:31:25.576Z</time>
      </trkpt>
      <trkpt lat="47.49026" lon="6.75987">
        <ele>350.7</ele>
        <time>2022-03-03T17:31:59.877Z</time>
      </trkpt>
      <trkpt lat="47.49025" lon="6.75862">
        <ele>360.2</ele>
        <time>2022-03-03T17:32:41.999Z</time>
      </trkpt>
      <trkpt lat="47.49033" lon="6.75713">
        <ele>372.5</ele>
        <time>2022-03-03T17:33:38.169Z</time>
      </trkpt>
      <trkpt lat="47.49058" lon="6.75602">
        <ele>376.8</ele>
        <time>2022-03-03T17:34:02.148Z</time>
      </trkpt>
      <trkpt lat="47.49067" lon="6.75478">
        <ele>391.2</ele>
        <time>2022-03-03T17:34:56.906Z</time>
      </trkpt>
      <trkpt lat="47.49074" lon="6.75362">
        <ele>399.1</ele>
        <time>2022-03-03T17:35:31.512Z</time>
      </trkpt>
      <trkpt lat="47.49066" lon="6.75264">
        <ele>406.9</ele>
        <time>2022-03-03T17:36:06.511Z</time>
      </trkpt>
      <trkpt lat="47.49042" lon="6.75175">
        <ele>413.7</ele>
        <time>2022-03-03T17:36:36.336Z</time>
      </trkpt>
      <trkpt lat="47.49013" lon="6.7514">
        <ele>418.1</ele>
        <time>2022-03-03T17:36:56.119Z</time>
      </trkpt>
      <trkpt lat="47.4898" lon="6.7513">
        <ele>421.2</ele>
        <time>2022-03-03T17:37:09.813Z</time>
      </trkpt>
      <trkpt lat="47.48952" lon="6.75148">
        <ele>424.9</ele>
        <time>2022-03-03T17:37:26.669Z</time>
      </trkpt>
      <trkpt lat="47.48956" lon="6.75193">
        <ele>424.4</ele>
        <time>2022-03-03T17:37:30.572Z</time>
      </trkpt>
      <trkpt lat="47.48921" lon="6.75266">
        <ele>420.2</ele>
        <time>2022-03-03T17:37:35.766Z</time>
      </trkpt>
      <trkpt lat="47.48918" lon="6.75353">
        <ele>416.4</ele>
        <time>2022-03-03T17:37:40.472Z</time>
      </trkpt>
      <trkpt lat="47.4892" lon="6.75418">
        <ele>415.2</ele>
        <time>2022-03-03T17:37:45.403Z</time>
      </trkpt>
      <trkpt lat="47.48914" lon="6.75516">
        <ele>412.2</ele>
        <time>2022-03-03T17:37:51.655Z</time>
      </trkpt>
      <trkpt lat="47.48884" lon="6.75624">
        <ele>408.8</ele>
        <time>2022-03-03T17:37:59.213Z</time>
      </trkpt>
      <trkpt lat="47.48835" lon="6.75672">
        <ele>412.3</ele>
        <time>2022-03-03T17:38:17.680Z</time>
      </trkpt>
      <trkpt lat="47.48862" lon="6.75755">
        <ele>420.7</ele>
        <time>2022-03-03T17:38:58.127Z</time>
      </trkpt>
      <trkpt lat="47.48888" lon="6.75821">
        <ele>421.7</ele>
        <time>2022-03-03T17:39:08.700Z</time>
      </trkpt>
      <trkpt lat="47.48872" lon="6.75866">
        <ele>429.2</ele>
        <time>2022-03-03T17:39:31.027Z</time>
      </trkpt>
      <trkpt lat="47.48826" lon="6.75803">
        <ele>429.3</ele>
        <time>2022-03-03T17:39:41.743Z</time>
      </trkpt>
      <trkpt lat="47.48802" lon="6.75824">
        <ele>432.3</ele>
        <time>2022-03-03T17:39:54.934Z</time>
      </trkpt>
      <trkpt lat="47.48818" lon="6.75846">
        <ele>437.8</ele>
        <time>2022-03-03T17:40:09.126Z</time>
      </trkpt>
      <trkpt lat="47.48835" lon="6.7588">
        <ele>442.8</ele>
        <time>2022-03-03T17:40:27.698Z</time>
      </trkpt>
      <trkpt lat="47.48856" lon="6.75951">
        <ele>445.6</ele>
        <time>2022-03-03T17:40:43.483Z</time>
      </trkpt>
      <trkpt lat="47.48828" lon="6.76026">
        <ele>452.2</ele>
        <time>2022-03-03T17:41:12.852Z</time>
      </trkpt>
      <trkpt lat="47.488" lon="6.76075">
        <ele>462.6</ele>
        <time>2022-03-03T17:41:41.029Z</time>
      </trkpt>
      <trkpt lat="47.48781" lon="6.76146">
        <ele>465.8</ele>
        <time>2022-03-03T17:41:57.529Z</time>
      </trkpt>
      <trkpt lat="47.48709" lon="6.76219">
        <ele>471.1</ele>
        <time>2022-03-03T17:42:25.181Z</time>
      </trkpt>
      <trkpt lat="47.48651" lon="6.76295">
        <ele>469.3</ele>
        <time>2022-03-03T17:42:34.267Z</time>
      </trkpt>
      <trkpt lat="47.48585" lon="6.76335">
        <ele>465.2</ele>
        <time>2022-03-03T17:42:40.297Z</time>
      </trkpt>
      <trkpt lat="47.48576" lon="6.76286">
        <ele>464.8</ele>
        <time>2022-03-03T17:42:44.927Z</time>
      </trkpt>
      <trkpt lat="47.48561" lon="6.76213">
        <ele>469.5</ele>
        <time>2022-03-03T17:43:05.723Z</time>
      </trkpt>
      <trkpt lat="47.48556" lon="6.762">
        <ele>468.3</ele>
        <time>2022-03-03T17:43:06.592Z</time>
      </trkpt>
      <trkpt lat="47.48562" lon="6.76286">
        <ele>463.1</ele>
        <time>2022-03-03T17:43:11.609Z</time>
      </trkpt>
      <trkpt lat="47.48534" lon="6.76249">
        <ele>460.6</ele>
        <time>2022-03-03T17:43:14.564Z</time>
      </trkpt>
      <trkpt lat="47.4851" lon="6.76194">
        <ele>457.8</ele>
        <time>2022-03-03T17:43:18.136Z</time>
      </trkpt>
      <trkpt lat="47.48499" lon="6.76174">
        <ele>456.5</ele>
        <time>2022-03-03T17:43:19.632Z</time>
      </trkpt>
      <trkpt lat="47.4848" lon="6.76168">
        <ele>452</ele>
        <time>2022-03-03T17:43:21.301Z</time>
      </trkpt>
      <trkpt lat="47.48457" lon="6.76163">
        <ele>447.3</ele>
        <time>2022-03-03T17:43:23.297Z</time>
      </trkpt>
      <trkpt lat="47.48445" lon="6.76179">
        <ele>444.7</ele>
        <time>2022-03-03T17:43:24.684Z</time>
      </trkpt>
      <trkpt lat="47.48456" lon="6.76223">
        <ele>447.2</ele>
        <time>2022-03-03T17:43:36.201Z</time>
      </trkpt>
      <trkpt lat="47.48468" lon="6.76261">
        <ele>445.6</ele>
        <time>2022-03-03T17:43:38.618Z</time>
      </trkpt>
      <trkpt lat="47.48475" lon="6.76293">
        <ele>444.6</ele>
        <time>2022-03-03T17:43:40.777Z</time>
      </trkpt>
      <trkpt lat="47.48479" lon="6.76321">
        <ele>444.2</ele>
        <time>2022-03-03T17:43:43.113Z</time>
      </trkpt>
      <trkpt lat="47.48471" lon="6.76327">
        <ele>442.3</ele>
        <time>2022-03-03T17:43:43.883Z</time>
      </trkpt>
      <trkpt lat="47.48465" lon="6.76347">
        <ele>442.3</ele>
        <time>2022-03-03T17:43:46.374Z</time>
      </trkpt>
      <trkpt lat="47.48457" lon="6.76323">
        <ele>440.1</ele>
        <time>2022-03-03T17:43:47.927Z</time>
      </trkpt>
      <trkpt lat="47.48412" lon="6.76312">
        <ele>427.6</ele>
        <time>2022-03-03T17:43:51.844Z</time>
      </trkpt>
      <trkpt lat="47.48385" lon="6.76306">
        <ele>418.1</ele>
        <time>2022-03-03T17:43:54.188Z</time>
      </trkpt>
      <trkpt lat="47.48362" lon="6.76298">
        <ele>412.3</ele>
        <time>2022-03-03T17:43:56.217Z</time>
      </trkpt>
      <trkpt lat="47.48339" lon="6.7631">
        <ele>410.3</ele>
        <time>2022-03-03T17:43:58.312Z</time>
      </trkpt>
      <trkpt lat="47.48307" lon="6.76311">
        <ele>406.7</ele>
        <time>2022-03-03T17:44:01.060Z</time>
      </trkpt>
      <trkpt lat="47.48293" lon="6.76343">
        <ele>405.7</ele>
        <time>2022-03-03T17:44:03.629Z</time>
      </trkpt>
      <trkpt lat="47.48293" lon="6.76404">
        <ele>404.5</ele>
        <time>2022-03-03T17:44:08.163Z</time>
      </trkpt>
      <trkpt lat="47.48295" lon="6.76443">
        <ele>401.8</ele>
        <time>2022-03-03T17:44:10.433Z</time>
      </trkpt>
      <trkpt lat="47.48271" lon="6.76422">
        <ele>395.9</ele>
        <time>2022-03-03T17:44:12.828Z</time>
      </trkpt>
      <trkpt lat="47.48265" lon="6.76366">
        <ele>396.6</ele>
        <time>2022-03-03T17:44:20.580Z</time>
      </trkpt>
      <trkpt lat="47.48267" lon="6.7627">
        <ele>389.5</ele>
        <time>2022-03-03T17:44:26.154Z</time>
      </trkpt>
      <trkpt lat="47.48229" lon="6.76192">
        <ele>383</ele>
        <time>2022-03-03T17:44:31.735Z</time>
      </trkpt>
      <trkpt lat="47.48216" lon="6.76146">
        <ele>381.4</ele>
        <time>2022-03-03T17:44:34.837Z</time>
      </trkpt>
      <trkpt lat="47.48191" lon="6.76062">
        <ele>375.1</ele>
        <time>2022-03-03T17:44:40.164Z</time>
      </trkpt>
      <trkpt lat="47.48193" lon="6.75955">
        <ele>370</ele>
        <time>2022-03-03T17:44:46.376Z</time>
      </trkpt>
      <trkpt lat="47.4821" lon="6.75843">
        <ele>368.4</ele>
        <time>2022-03-03T17:44:55.751Z</time>
      </trkpt>
      <trkpt lat="47.48208" lon="6.75806">
        <ele>363.2</ele>
        <time>2022-03-03T17:44:57.905Z</time>
      </trkpt>
      <trkpt lat="47.48228" lon="6.7574">
        <ele>360.2</ele>
        <time>2022-03-03T17:45:01.911Z</time>
      </trkpt>
      <trkpt lat="47.48258" lon="6.7571">
        <ele>360.7</ele>
        <time>2022-03-03T17:45:08.894Z</time>
      </trkpt>
      <trkpt lat="47.48267" lon="6.75682">
        <ele>356.5</ele>
        <time>2022-03-03T17:45:10.694Z</time>
      </trkpt>
      <trkpt lat="47.48252" lon="6.75678">
        <ele>353.6</ele>
        <time>2022-03-03T17:45:12.003Z</time>
      </trkpt>
      <trkpt lat="47.48158" lon="6.75801">
        <ele>342.9</ele>
        <time>2022-03-03T17:45:22.779Z</time>
      </trkpt>
      <trkpt lat="47.48107" lon="6.75907">
        <ele>335.1</ele>
        <time>2022-03-03T17:45:30.331Z</time>
      </trkpt>
      <trkpt lat="47.4806" lon="6.76039">
        <ele>329.8</ele>
        <time>2022-03-03T17:45:39.213Z</time>
      </trkpt>
      <trkpt lat="47.48036" lon="6.76093">
        <ele>326.5</ele>
        <time>2022-03-03T17:45:42.964Z</time>
      </trkpt>
      <trkpt lat="47.48027" lon="6.76097">
        <ele>324.2</ele>
        <time>2022-03-03T17:45:43.771Z</time>
      </trkpt>
      <trkpt lat="47.48035" lon="6.76041">
        <ele>323.6</ele>
        <time>2022-03-03T17:45:48.741Z</time>
      </trkpt>
      <trkpt lat="47.48036" lon="6.7602">
        <ele>322.4</ele>
        <time>2022-03-03T17:45:49.963Z</time>
      </trkpt>
      <trkpt lat="47.48024" lon="6.76009">
        <ele>319.7</ele>
        <time>2022-03-03T17:45:51.176Z</time>
      </trkpt>
      <trkpt lat="47.48002" lon="6.76062">
        <ele>318.3</ele>
        <time>2022-03-03T17:45:55.602Z</time>
      </trkpt>
      <trkpt lat="47.4795" lon="6.76136">
        <ele>312.9</ele>
        <time>2022-03-03T17:46:01.798Z</time>
      </trkpt>
      <trkpt lat="47.47921" lon="6.76159">
        <ele>310.5</ele>
        <time>2022-03-03T17:46:04.623Z</time>
      </trkpt>
      <trkpt lat="47.47926" lon="6.76193">
        <ele>309.7</ele>
        <time>2022-03-03T17:46:07.082Z</time>
      </trkpt>
      <trkpt lat="47.47951" lon="6.76232">
        <ele>310.6</ele>
        <time>2022-03-03T17:46:14.998Z</time>
      </trkpt>
      <trkpt lat="47.47987" lon="6.76265">
        <ele>311</ele>
        <time>2022-03-03T17:46:22.808Z</time>
      </trkpt>
      <trkpt lat="47.48016" lon="6.76316">
        <ele>311.1</ele>
        <time>2022-03-03T17:46:30.554Z</time>
      </trkpt>
      <trkpt lat="47.48033" lon="6.76341">
        <ele>312.2</ele>
        <time>2022-03-03T17:46:37.430Z</time>
      </trkpt>
      <trkpt lat="47.48082" lon="6.76445">
        <ele>312.7</ele>
        <time>2022-03-03T17:46:52.679Z</time>
      </trkpt>
      <trkpt lat="47.48094" lon="6.76473">
        <ele>312.1</ele>
        <time>2022-03-03T17:46:55.206Z</time>
      </trkpt>
      <trkpt lat="47.48109" lon="6.7653">
        <ele>312.6</ele>
        <time>2022-03-03T17:47:03.038Z</time>
      </trkpt>
      <trkpt lat="47.4812" lon="6.76561">
        <ele>312.3</ele>
        <time>2022-03-03T17:47:06.189Z</time>
      </trkpt>
      <trkpt lat="47.48099" lon="6.76599">
        <ele>309.9</ele>
        <time>2022-03-03T17:47:09.038Z</time>
      </trkpt>
      <trkpt lat="47.48101" lon="6.76641">
        <ele>310.6</ele>
        <time>2022-03-03T17:47:15.226Z</time>
      </trkpt>
      <trkpt lat="47.48139" lon="6.76701">
        <ele>311.8</ele>
        <time>2022-03-03T17:47:26.896Z</time>
      </trkpt>
      <trkpt lat="47.48183" lon="6.7678">
        <ele>310.7</ele>
        <time>2022-03-03T17:47:35.744Z</time>
      </trkpt>
      <trkpt lat="47.48219" lon="6.76801">
        <ele>311.7</ele>
        <time>2022-03-03T17:47:44.284Z</time>
      </trkpt>
      <trkpt lat="47.48243" lon="6.76805">
        <ele>312</ele>
        <time>2022-03-03T17:47:48.875Z</time>
      </trkpt>
      <trkpt lat="47.48276" lon="6.76852">
        <ele>311.3</ele>
        <time>2022-03-03T17:47:54.777Z</time>
      </trkpt>
      <trkpt lat="47.48327" lon="6.76901">
        <ele>311.2</ele>
        <time>2022-03-03T17:48:04.769Z</time>
      </trkpt>
      <trkpt lat="47.4837" lon="6.76932">
        <ele>311.4</ele>
        <time>2022-03-03T17:48:13.148Z</time>
      </trkpt>
      <trkpt lat="47.48412" lon="6.7696">
        <ele>311.3</ele>
        <time>2022-03-03T17:48:20.659Z</time>
      </trkpt>
      <trkpt lat="47.48453" lon="6.76979">
        <ele>312.1</ele>
        <time>2022-03-03T17:48:29.385Z</time>
      </trkpt>
      <trkpt lat="47.48507" lon="6.77013">
        <ele>312.2</ele>
        <time>2022-03-03T17:48:39.428Z</time>
      </trkpt>
      <trkpt lat="47.48552" lon="6.77046">
        <ele>311.5</ele>
        <time>2022-03-03T17:48:46.010Z</time>
      </trkpt>
      <trkpt lat="47.48584" lon="6.77057">
        <ele>312.8</ele>
        <time>2022-03-03T17:48:54.691Z</time>
      </trkpt>
      <trkpt lat="47.48631" lon="6.77095">
        <ele>310.9</ele>
        <time>2022-03-03T17:49:00.209Z</time>
      </trkpt>
      <trkpt lat="47.48669" lon="6.77132">
        <ele>311.7</ele>
        <time>2022-03-03T17:49:09.343Z</time>
      </trkpt>
      <trkpt lat="47.48736" lon="6.77191">
        <ele>311</ele>
        <time>2022-03-03T17:49:20.243Z</time>
      </trkpt>
      <trkpt lat="47.48784" lon="6.7723">
        <ele>311.4</ele>
        <time>2022-03-03T17:49:30.129Z</time>
      </trkpt>
      <trkpt lat="47.48841" lon="6.77259">
        <ele>311.2</ele>
        <time>2022-03-03T17:49:39.792Z</time>
      </trkpt>
      <trkpt lat="47.48915" lon="6.77303">
        <ele>311.9</ele>
        <time>2022-03-03T17:49:54.402Z</time>
      </trkpt>
      <trkpt lat="47.48962" lon="6.77316">
        <ele>311.6</ele>
        <time>2022-03-03T17:50:01.750Z</time>
      </trkpt>
      <trkpt lat="47.48992" lon="6.77322">
        <ele>311.7</ele>
        <time>2022-03-03T17:50:07.009Z</time>
      </trkpt>
      <trkpt lat="47.49022" lon="6.7732">
        <ele>311.2</ele>
        <time>2022-03-03T17:50:10.814Z</time>
      </trkpt>
      <trkpt lat="47.49052" lon="6.77316">
        <ele>311.3</ele>
        <time>2022-03-03T17:50:16.048Z</time>
      </trkpt>
      <trkpt lat="47.49122" lon="6.77334">
        <ele>312</ele>
        <time>2022-03-03T17:50:29.205Z</time>
      </trkpt>
      <trkpt lat="47.49163" lon="6.77336">
        <ele>311.9</ele>
        <time>2022-03-03T17:50:35.867Z</time>
      </trkpt>
      <trkpt lat="47.49199" lon="6.77334">
        <ele>312.8</ele>
        <time>2022-03-03T17:50:43.736Z</time>
      </trkpt>
      <trkpt lat="47.49252" lon="6.77335">
        <ele>312.8</ele>
        <time>2022-03-03T17:50:52.666Z</time>
      </trkpt>
      <trkpt lat="47.49278" lon="6.77324">
        <ele>312</ele>
        <time>2022-03-03T17:50:55.625Z</time>
      </trkpt>
      <trkpt lat="47.49307" lon="6.7733">
        <ele>312</ele>
        <time>2022-03-03T17:51:00.558Z</time>
      </trkpt>
      <trkpt lat="47.49333" lon="6.77343">
        <ele>312</ele>
        <time>2022-03-03T17:51:05.181Z</time>
      </trkpt>
      <trkpt lat="47.49378" lon="6.77347">
        <ele>312</ele>
        <time>2022-03-03T17:51:12.776Z</time>
      </trkpt>
      <trkpt lat="47.49446" lon="6.77352">
        <ele>312</ele>
        <time>2022-03-03T17:51:24.246Z</time>
      </trkpt>
      <trkpt lat="47.49501" lon="6.77354">
        <ele>312</ele>
        <time>2022-03-03T17:51:33.514Z</time>
      </trkpt>
      <trkpt lat="47.49572" lon="6.77355">
        <ele>312.6</ele>
        <time>2022-03-03T17:51:46.479Z</time>
      </trkpt>
      <trkpt lat="47.49623" lon="6.77354">
        <ele>312.7</ele>
        <time>2022-03-03T17:51:55.229Z</time>
      </trkpt>
      <trkpt lat="47.49663" lon="6.77348">
        <ele>311.5</ele>
        <time>2022-03-03T17:51:59.616Z</time>
      </trkpt>
      <trkpt lat="47.49714" lon="6.77335">
        <ele>312.9</ele>
        <time>2022-03-03T17:52:11.206Z</time>
      </trkpt>
      <trkpt lat="47.49743" lon="6.77318">
        <ele>313.1</ele>
        <time>2022-03-03T17:52:16.789Z</time>
      </trkpt>
      <trkpt lat="47.49766" lon="6.77307">
        <ele>313.9</ele>
        <time>2022-03-03T17:52:22.632Z</time>
      </trkpt>
      <trkpt lat="47.49802" lon="6.77309">
        <ele>313.5</ele>
        <time>2022-03-03T17:52:27.528Z</time>
      </trkpt>
      <trkpt lat="47.49847" lon="6.77298">
        <ele>314.7</ele>
        <time>2022-03-03T17:52:37.652Z</time>
      </trkpt>
      <trkpt lat="47.49903" lon="6.77284">
        <ele>314.4</ele>
        <time>2022-03-03T17:52:46.503Z</time>
      </trkpt>
      <trkpt lat="47.49927" lon="6.77272">
        <ele>314</ele>
        <time>2022-03-03T17:52:49.747Z</time>
      </trkpt>
      <trkpt lat="47.49982" lon="6.77248">
        <ele>313.2</ele>
        <time>2022-03-03T17:52:57.260Z</time>
      </trkpt>
      <trkpt lat="47.50029" lon="6.77227">
        <ele>314.1</ele>
        <time>2022-03-03T17:53:07.199Z</time>
      </trkpt>
      <trkpt lat="47.50066" lon="6.77212">
        <ele>314.1</ele>
        <time>2022-03-03T17:53:13.662Z</time>
      </trkpt>
      <trkpt lat="47.50124" lon="6.77201">
        <ele>313.8</ele>
        <time>2022-03-03T17:53:22.795Z</time>
      </trkpt>
      <trkpt lat="47.50183" lon="6.77236">
        <ele>313.3</ele>
        <time>2022-03-03T17:53:31.816Z</time>
      </trkpt>
      <trkpt lat="47.50231" lon="6.77279">
        <ele>313.2</ele>
        <time>2022-03-03T17:53:41.017Z</time>
      </trkpt>
      <trkpt lat="47.5032" lon="6.77333">
        <ele>313.5</ele>
        <time>2022-03-03T17:53:57.697Z</time>
      </trkpt>
      <trkpt lat="47.50405" lon="6.77408">
        <ele>313.4</ele>
        <time>2022-03-03T17:54:14.113Z</time>
      </trkpt>
      <trkpt lat="47.50495" lon="6.77478">
        <ele>313.8</ele>
        <time>2022-03-03T17:54:31.881Z</time>
      </trkpt>
      <trkpt lat="47.50552" lon="6.77535">
        <ele>314.3</ele>
        <time>2022-03-03T17:54:44.296Z</time>
      </trkpt>
      <trkpt lat="47.50571" lon="6.77554">
        <ele>313.6</ele>
        <time>2022-03-03T17:54:46.780Z</time>
      </trkpt>
      <trkpt lat="47.50587" lon="6.77539">
        <ele>314.1</ele>
        <time>2022-03-03T17:54:50.988Z</time>
      </trkpt>
      <trkpt lat="47.50624" lon="6.77535">
        <ele>314.4</ele>
        <time>2022-03-03T17:54:57.738Z</time>
      </trkpt>
      <trkpt lat="47.50652" lon="6.77532">
        <ele>314</ele>
        <time>2022-03-03T17:55:01.402Z</time>
      </trkpt>
      <trkpt lat="47.50685" lon="6.77527">
        <ele>314</ele>
        <time>2022-03-03T17:55:06.991Z</time>
      </trkpt>
      <trkpt lat="47.50715" lon="6.77536">
        <ele>314</ele>
        <time>2022-03-03T17:55:12.148Z</time>
      </trkpt>
      <trkpt lat="47.50767" lon="6.77565">
        <ele>313.8</ele>
        <time>2022-03-03T17:55:21.019Z</time>
      </trkpt>
      <trkpt lat="47.50785" lon="6.77581">
        <ele>313.1</ele>
        <time>2022-03-03T17:55:23.229Z</time>
      </trkpt>
      <trkpt lat="47.50848" lon="6.77632">
        <ele>313</ele>
        <time>2022-03-03T17:55:35.073Z</time>
      </trkpt>
      <trkpt lat="47.50889" lon="6.77702">
        <ele>313.3</ele>
        <time>2022-03-03T17:55:46.100Z</time>
      </trkpt>
      <trkpt lat="47.50926" lon="6.77694">
        <ele>313.3</ele>
        <time>2022-03-03T17:55:52.400Z</time>
      </trkpt>
      <trkpt lat="47.50951" lon="6.77697">
        <ele>314.2</ele>
        <time>2022-03-03T17:55:58.694Z</time>
      </trkpt>
      <trkpt lat="47.5098" lon="6.77682">
        <ele>315</ele>
        <time>2022-03-03T17:56:05.490Z</time>
      </trkpt>
      <trkpt lat="47.51035" lon="6.77714">
        <ele>316.2</ele>
        <time>2022-03-03T17:56:17.721Z</time>
      </trkpt>
      <trkpt lat="47.51065" lon="6.77748">
        <ele>317.3</ele>
        <time>2022-03-03T17:56:26.400Z</time>
      </trkpt>
      <trkpt lat="47.51064" lon="6.778">
        <ele>317.3</ele>
        <time>2022-03-03T17:56:32.320Z</time>
      </trkpt>
      <trkpt lat="47.51171" lon="6.77786">
        <ele>323.3</ele>
        <time>2022-03-03T17:57:05.224Z</time>
      </trkpt>
      <trkpt lat="47.51283" lon="6.77779">
        <ele>333.4</ele>
        <time>2022-03-03T17:57:50.013Z</time>
      </trkpt>
      <trkpt lat="47.51341" lon="6.77804">
        <ele>342.9</ele>
        <time>2022-03-03T17:58:29.265Z</time>
      </trkpt>
      <trkpt lat="47.51335" lon="6.77776">
        <ele>339.3</ele>
        <time>2022-03-03T17:58:30.969Z</time>
      </trkpt>
      <trkpt lat="47.51406" lon="6.77742">
        <ele>348.7</ele>
        <time>2022-03-03T17:59:14.736Z</time>
      </trkpt>
      <trkpt lat="47.51472" lon="6.77726">
        <ele>356</ele>
        <time>2022-03-03T17:59:46.904Z</time>
      </trkpt>
      <trkpt lat="47.51524" lon="6.77728">
        <ele>362.6</ele>
        <time>2022-03-03T18:00:17.780Z</time>
      </trkpt>
      <trkpt lat="47.51594" lon="6.77734">
        <ele>371.2</ele>
        <time>2022-03-03T18:00:57.199Z</time>
      </trkpt>
      <trkpt lat="47.51582" lon="6.7776">
        <ele>370.1</ele>
        <time>2022-03-03T18:00:59.086Z</time>
      </trkpt>
      <trkpt lat="47.51666" lon="6.77753">
        <ele>377.2</ele>
        <time>2022-03-03T18:01:31.078Z</time>
      </trkpt>
      <trkpt lat="47.51711" lon="6.77765">
        <ele>382</ele>
        <time>2022-03-03T18:01:52.130Z</time>
      </trkpt>
      <trkpt lat="47.51708" lon="6.77679">
        <ele>388.8</ele>
        <time>2022-03-03T18:02:22.640Z</time>
      </trkpt>
      <trkpt lat="47.51715" lon="6.7762">
        <ele>391.7</ele>
        <time>2022-03-03T18:02:36.530Z</time>
      </trkpt>
      <trkpt lat="47.51711" lon="6.77531">
        <ele>392</ele>
        <time>2022-03-03T18:02:47.164Z</time>
      </trkpt>
      <trkpt lat="47.51722" lon="6.77463">
        <ele>391.3</ele>
        <time>2022-03-03T18:02:53.284Z</time>
      </trkpt>
      <trkpt lat="47.51786" lon="6.77481">
        <ele>390.4</ele>
        <time>2022-03-03T18:03:01.834Z</time>
      </trkpt>
      <trkpt lat="47.51828" lon="6.77497">
        <ele>388.1</ele>
        <time>2022-03-03T18:03:05.639Z</time>
      </trkpt>
    </trkseg>
  </trk>
</gpx>